createdAt,value
2022-10-05T00:02:24.721Z,101514.34
2022-10-05T00:05:32.151Z,101499.94
2022-10-05T00:08:33.563Z,101514.81
2022-10-05T00:11:30.194Z,101513.00
2022-10-05T00:14:32.442Z,101508.06
2022-10-05T00:17:29.603Z,101492.09
2022-10-05T00:20:26.450Z,101500.88
2022-10-05T00:23:25.584Z,101503.56
2022-10-05T00:26:24.962Z,101502.03
2022-10-05T00:29:22.855Z,101481.53
2022-10-05T00:32:21.091Z,101475.59
2022-10-05T00:35:18.855Z,101478.06
2022-10-05T00:38:16.248Z,101479.56
2022-10-05T00:41:19.568Z,101476.84
2022-10-05T00:44:41.121Z,101472.59
2022-10-05T00:48:05.398Z,101464.03
2022-10-05T00:51:27.356Z,101467.63
2022-10-05T00:54:30.297Z,101477.81
2022-10-05T00:57:34.088Z,101464.91
2022-10-05T01:00:31.090Z,101462.31
2022-10-05T01:03:30.884Z,101479.38
2022-10-05T01:06:54.213Z,101472.88
2022-10-05T01:10:06.881Z,101478.91
2022-10-05T01:13:09.854Z,101469.16
2022-10-05T01:16:07.145Z,101478.78
2022-10-05T01:19:19.809Z,101482.28
2022-10-05T01:22:45.268Z,101485.94
2022-10-05T01:25:51.542Z,101471.88
2022-10-05T01:28:52.686Z,101483.31
2022-10-05T01:32:00.257Z,101465.13
2022-10-05T01:35:00.233Z,101470.28
2022-10-05T01:38:17.186Z,101453.72
2022-10-05T01:41:29.991Z,101450.72
2022-10-05T01:44:44.706Z,101444.44
2022-10-05T01:47:46.099Z,101441.06
2022-10-05T01:50:55.064Z,101434.91
2022-10-05T01:53:55.618Z,101426.16
2022-10-05T01:57:01.967Z,101413.19
2022-10-05T02:00:07.974Z,101409.13
2022-10-05T02:03:20.831Z,101402.91
2022-10-05T02:06:23.921Z,101402.44
2022-10-05T02:09:29.006Z,101422.13
2022-10-05T02:12:29.570Z,101425.19
2022-10-05T02:15:32.689Z,101411.81
2022-10-05T02:18:51.084Z,101409.22
2022-10-05T02:21:54.126Z,101414.81
2022-10-05T02:24:54.032Z,101399.81
2022-10-05T02:28:11.516Z,101400.25
2022-10-05T02:31:18.496Z,101396.91
2022-10-05T02:34:25.977Z,101392.56
2022-10-05T02:37:57.484Z,101391.00
2022-10-05T02:41:23.185Z,101385.59
2022-10-05T02:44:26.486Z,101379.16
2022-10-05T02:47:46.610Z,101378.84
2022-10-05T02:51:04.383Z,101382.75
2022-10-05T02:54:11.194Z,101367.72
2022-10-05T02:57:15.764Z,101376.25
2022-10-05T03:00:17.477Z,101370.47
2022-10-05T03:03:25.287Z,101345.66
2022-10-05T03:06:26.725Z,101340.25
2022-10-05T03:09:25.606Z,101337.69
2022-10-05T03:12:49.136Z,101349.22
2022-10-05T03:15:48.161Z,101341.09
2022-10-05T03:18:59.295Z,101356.66
2022-10-05T03:22:02.506Z,101330.16
2022-10-05T03:25:12.548Z,101336.53
2022-10-05T03:28:31.163Z,101341.72
2022-10-05T03:32:04.435Z,101330.50
2022-10-05T03:35:14.911Z,101316.34
2022-10-05T03:38:27.628Z,101328.53
2022-10-05T03:42:05.228Z,101322.38
2022-10-05T03:45:09.451Z,101327.63
2022-10-05T03:48:11.853Z,101326.59
2022-10-05T03:51:20.438Z,101331.69
2022-10-05T03:54:29.615Z,101332.06
2022-10-05T03:57:27.701Z,101320.16
2022-10-05T04:00:27.730Z,101335.03
2022-10-05T04:03:34.060Z,101329.81
2022-10-05T04:06:34.563Z,101334.66
2022-10-05T04:09:43.344Z,101330.19
2022-10-05T04:12:41.716Z,101323.94
2022-10-05T04:15:44.077Z,101316.81
2022-10-05T04:19:01.579Z,101311.13
2022-10-05T04:22:07.856Z,101326.69
2022-10-05T04:25:26.664Z,101316.59
2022-10-05T04:28:50.781Z,101310.19
2022-10-05T04:31:56.154Z,101312.22
2022-10-05T04:35:15.388Z,101298.59
2022-10-05T04:38:21.365Z,101307.38
2022-10-05T04:41:31.061Z,101311.94
2022-10-05T04:44:38.526Z,101297.66
2022-10-05T04:47:52.682Z,101305.91
2022-10-05T04:50:50.174Z,101291.69
2022-10-05T04:53:55.322Z,101294.97
2022-10-05T04:56:59.149Z,101292.59
2022-10-05T05:00:21.437Z,101280.00
2022-10-05T05:03:57.735Z,101287.09
2022-10-05T05:07:02.686Z,101284.44
2022-10-05T05:10:02.488Z,101297.47
2022-10-05T05:13:48.611Z,101301.00
2022-10-05T05:16:47.847Z,101296.47
2022-10-05T05:20:27.047Z,101288.34
2022-10-05T05:23:48.224Z,101297.09
2022-10-05T05:27:09.414Z,101288.94
2022-10-05T05:30:14.054Z,101287.69
2022-10-05T05:33:15.660Z,101280.25
2022-10-05T05:36:34.858Z,101288.72
2022-10-05T05:39:54.731Z,101279.56
2022-10-05T05:43:09.869Z,101270.50
2022-10-05T05:47:04.418Z,101279.91
2022-10-05T05:50:21.492Z,101281.03
2022-10-05T05:53:24.122Z,101270.31
2022-10-05T05:56:27.123Z,101275.69
2022-10-05T05:59:39.770Z,101273.03
2022-10-05T06:02:48.262Z,101270.69
2022-10-05T06:05:49.649Z,101265.13
2022-10-05T06:08:56.275Z,101276.72
2022-10-05T06:12:05.147Z,101274.69
2022-10-05T06:15:30.976Z,101273.09
2022-10-05T06:18:28.446Z,101276.75
2022-10-05T06:21:34.568Z,101279.66
2022-10-05T06:24:46.130Z,101287.09
2022-10-05T06:28:12.685Z,101284.50
2022-10-05T06:31:45.661Z,101287.72
2022-10-05T06:34:58.010Z,101278.81
2022-10-05T06:38:09.379Z,101280.25
2022-10-05T06:41:56.326Z,101288.63
2022-10-05T06:45:13.512Z,101292.19
2022-10-05T06:48:50.890Z,101274.03
2022-10-05T06:52:19.418Z,101271.72
2022-10-05T06:55:37.860Z,101276.72
2022-10-05T06:58:44.845Z,101276.84
2022-10-05T07:01:57.394Z,101286.91
2022-10-05T07:05:37.284Z,101269.03
2022-10-05T07:09:14.209Z,101275.75
2022-10-05T07:12:43.613Z,101277.97
2022-10-05T07:16:18.115Z,101284.50
2022-10-05T07:19:34.202Z,101279.56
2022-10-05T07:22:50.234Z,101272.59
2022-10-05T07:26:02.558Z,101282.25
2022-10-05T07:28:59.588Z,101285.94
2022-10-05T07:31:59.114Z,101287.25
2022-10-05T07:35:34.416Z,101287.34
2022-10-05T07:38:57.397Z,101287.09
2022-10-05T07:42:18.977Z,101300.25
2022-10-05T07:45:20.186Z,101292.41
2022-10-05T07:48:42.295Z,101302.22
2022-10-05T07:51:45.255Z,101320.16
2022-10-05T07:55:03.488Z,101315.22
2022-10-05T07:58:16.961Z,101306.47
2022-10-05T08:01:35.206Z,101302.28
2022-10-05T08:05:28.950Z,101306.69
2022-10-05T08:08:32.437Z,101311.03
2022-10-05T08:11:57.750Z,101308.22
2022-10-05T08:15:00.521Z,101312.19
2022-10-05T08:18:34.380Z,101309.91
2022-10-05T08:21:34.475Z,101307.41
2022-10-05T08:24:57.915Z,101299.69
2022-10-05T08:28:05.127Z,101304.38
2022-10-05T08:31:29.990Z,101303.41
2022-10-05T08:34:34.821Z,101305.28
2022-10-05T08:37:37.614Z,101300.00
2022-10-05T08:40:49.920Z,101288.06
2022-10-05T08:44:02.786Z,101302.09
2022-10-05T08:47:18.237Z,101296.94
2022-10-05T08:50:37.826Z,101296.50
2022-10-05T08:54:04.044Z,101284.44
2022-10-05T08:57:27.890Z,101291.31
2022-10-05T09:00:28.267Z,101290.41
2022-10-05T09:04:03.613Z,101294.81
2022-10-05T09:07:42.782Z,101287.44
2022-10-05T09:11:03.931Z,101288.22
2022-10-05T09:14:15.824Z,101283.03
2022-10-05T09:17:39.301Z,101269.53
2022-10-05T09:20:54.261Z,101280.69
2022-10-05T09:24:04.485Z,101259.84
2022-10-05T09:27:10.655Z,101261.19
2022-10-05T09:30:34.791Z,101264.44
2022-10-05T09:33:53.213Z,101269.19
2022-10-05T09:37:13.862Z,101250.41
2022-10-05T09:40:47.466Z,101253.75
2022-10-05T09:44:22.081Z,101236.56
2022-10-05T09:47:45.281Z,101252.25
2022-10-05T09:51:01.357Z,101239.34
2022-10-05T09:53:58.732Z,101240.19
2022-10-05T09:57:11.947Z,101231.88
2022-10-05T10:00:28.352Z,101230.78
2022-10-05T10:03:49.178Z,101212.06
2022-10-05T10:06:55.317Z,101231.75
2022-10-05T10:10:13.923Z,101229.25
2022-10-05T10:13:32.254Z,101208.44
2022-10-05T10:16:29.939Z,101215.41
2022-10-05T10:19:30.762Z,101213.84
2022-10-05T10:22:43.364Z,101202.47
2022-10-05T10:25:49.591Z,101201.69
2022-10-05T10:29:02.971Z,101207.78
2022-10-05T10:31:59.594Z,101210.97
2022-10-05T10:35:21.685Z,101200.47
2022-10-05T10:38:28.982Z,101203.97
2022-10-05T10:41:44.090Z,101204.63
2022-10-05T10:45:31.771Z,101196.13
2022-10-05T10:48:28.822Z,101163.84
2022-10-05T10:51:44.005Z,101180.19
2022-10-05T10:54:56.178Z,101174.50
2022-10-05T10:58:19.692Z,101161.84
2022-10-05T11:01:52.408Z,101194.19
2022-10-05T11:04:55.794Z,101175.44
2022-10-05T11:07:52.729Z,101180.56
2022-10-05T11:10:59.239Z,101161.28
2022-10-05T11:14:21.343Z,101167.94
2022-10-05T11:17:23.603Z,101153.94
2022-10-05T11:20:44.356Z,101140.41
2022-10-05T11:24:00.559Z,101149.50
2022-10-05T11:27:33.997Z,101142.56
2022-10-05T11:30:48.856Z,101149.63
2022-10-05T11:33:53.681Z,101131.94
2022-10-05T11:37:03.474Z,101131.13
2022-10-05T11:40:38.565Z,101120.56
2022-10-05T11:44:07.312Z,101118.94
2022-10-05T11:47:19.883Z,101105.47
2022-10-05T11:50:35.981Z,101105.47
2022-10-05T11:53:48.039Z,101105.13
2022-10-05T11:57:13.810Z,101115.34
2022-10-05T12:00:15.613Z,101097.78
2022-10-05T12:03:48.219Z,101100.22
2022-10-05T12:07:04.753Z,101097.75
2022-10-05T12:10:29.023Z,101088.34
2022-10-05T12:13:40.355Z,101103.47
2022-10-05T12:16:46.197Z,101079.38
2022-10-05T12:20:05.973Z,101076.13
2022-10-05T12:23:40.568Z,101071.22
2022-10-05T12:26:44.891Z,101062.59
2022-10-05T12:29:49.690Z,101047.09
2022-10-05T12:32:55.878Z,101058.13
2022-10-05T12:36:03.768Z,101055.28
2022-10-05T12:39:05.274Z,101060.16
2022-10-05T12:42:15.189Z,101064.25
2022-10-05T12:45:18.148Z,101052.78
2022-10-05T12:48:22.344Z,101058.94
2022-10-05T12:51:23.327Z,101056.06
2022-10-05T12:54:24.943Z,101042.56
2022-10-05T12:57:34.276Z,101044.63
2022-10-05T13:00:37.566Z,101056.03
2022-10-05T13:03:38.024Z,101065.03
2022-10-05T13:06:53.444Z,101052.38
2022-10-05T13:09:53.899Z,101052.81
2022-10-05T13:13:36.075Z,101050.31
2022-10-05T13:17:31.182Z,101051.97
2022-10-05T13:20:30.016Z,101057.69
2022-10-05T13:23:45.771Z,101063.44
2022-10-05T13:26:48.591Z,101043.78
2022-10-05T13:29:54.178Z,101048.69
2022-10-05T13:33:00.059Z,101052.41
2022-10-05T13:36:26.253Z,101051.53
2022-10-05T13:39:55.179Z,101055.19
2022-10-05T13:43:20.264Z,101054.44
2022-10-05T13:46:35.555Z,101040.09
2022-10-05T13:49:44.553Z,101046.66
2022-10-05T13:53:06.535Z,101048.69
2022-10-05T13:56:12.438Z,101046.69
2022-10-05T13:59:25.127Z,101044.59
2022-10-05T14:02:29.687Z,101042.97
2022-10-05T14:05:28.088Z,101030.69
2022-10-05T14:08:29.818Z,101023.25
2022-10-05T14:11:34.941Z,101026.91
2022-10-05T14:14:32.907Z,101019.84
2022-10-05T14:17:42.918Z,101023.88
2022-10-05T14:20:39.871Z,101014.53
2022-10-05T14:23:38.460Z,101001.13
2022-10-05T14:26:36.064Z,101007.16
2022-10-05T14:29:37.770Z,101017.25
2022-10-05T14:32:55.994Z,101000.09
2022-10-05T14:35:54.666Z,101004.59
2022-10-05T14:38:55.250Z,100998.47
2022-10-05T14:41:53.393Z,100990.31
2022-10-05T14:44:59.479Z,100992.06
2022-10-05T14:48:01.833Z,100988.31
2022-10-05T14:51:03.462Z,100991.22
2022-10-05T14:54:02.297Z,100981.41
2022-10-05T14:57:18.118Z,100973.16
2022-10-05T15:00:19.197Z,100989.47
2022-10-05T15:03:18.969Z,100974.31
2022-10-05T15:06:26.917Z,100985.31
2022-10-05T15:09:33.409Z,100986.09
2022-10-05T15:12:32.548Z,100970.91
2022-10-05T15:15:37.132Z,100978.75
2022-10-05T15:19:02.922Z,100979.16
2022-10-05T15:22:06.121Z,100971.75
2022-10-05T15:25:17.196Z,100972.91
2022-10-05T15:28:24.866Z,100979.97
2022-10-05T15:31:47.882Z,100965.75
2022-10-05T15:35:24.242Z,100961.38
2022-10-05T15:38:25.744Z,100963.41
2022-10-05T15:41:40.073Z,100968.25
2022-10-05T15:44:52.249Z,100964.97
2022-10-05T15:48:17.599Z,100974.31
2022-10-05T15:51:21.969Z,100975.56
2022-10-05T15:54:41.901Z,100986.28
2022-10-05T15:57:51.069Z,100986.75
2022-10-05T16:00:51.150Z,100994.06
2022-10-05T16:03:49.797Z,100985.50
2022-10-05T16:07:27.972Z,100990.84
2022-10-05T16:10:25.884Z,100986.34
2022-10-05T16:13:34.952Z,100981.94
2022-10-05T16:16:37.923Z,100990.56
2022-10-05T16:20:19.029Z,100997.47
2022-10-05T16:23:33.914Z,100997.91
2022-10-05T16:26:51.181Z,100990.97
2022-10-05T16:30:00.027Z,100998.75
2022-10-05T16:33:14.403Z,100999.16
2022-10-05T16:36:40.147Z,100995.47
2022-10-05T16:39:57.185Z,101003.66
2022-10-05T16:42:57.151Z,101011.06
2022-10-05T16:46:14.822Z,101007.75
2022-10-05T16:49:37.007Z,101006.16
2022-10-05T16:52:34.054Z,101015.16
2022-10-05T16:55:48.528Z,101019.22
2022-10-05T16:59:11.193Z,101018.03
2022-10-05T17:02:25.895Z,101023.34
2022-10-05T17:05:30.402Z,101018.41
2022-10-05T17:09:05.198Z,101023.34
2022-10-05T17:12:14.215Z,101029.88
2022-10-05T17:15:19.668Z,101024.53
2022-10-05T17:18:54.774Z,101024.97
2022-10-05T17:22:23.916Z,101027.81
2022-10-05T17:25:39.581Z,101038.84
2022-10-05T17:28:38.310Z,101043.78
2022-10-05T17:32:00.804Z,101046.66
2022-10-05T17:35:00.832Z,101057.69
2022-10-05T17:38:22.702Z,101061.78
2022-10-05T17:41:30.316Z,101072.03
2022-10-05T17:44:27.228Z,101064.66
2022-10-05T17:47:58.386Z,101078.97
2022-10-05T17:51:13.888Z,101078.56
2022-10-05T17:54:39.974Z,101070.78
2022-10-05T17:57:37.658Z,101072.03
2022-10-05T18:00:40.728Z,101077.31
2022-10-05T18:03:43.253Z,101086.38
2022-10-05T18:06:52.798Z,101097.81
2022-10-05T18:09:54.334Z,101101.06
2022-10-05T18:13:18.403Z,101101.06
2022-10-05T18:16:53.687Z,101103.13
2022-10-05T18:20:28.030Z,101086.34
2022-10-05T18:23:26.749Z,101101.47
2022-10-05T18:26:32.941Z,101103.56
2022-10-05T18:30:02.735Z,101114.59
2022-10-05T18:33:23.155Z,101096.16
2022-10-05T18:36:40.504Z,101110.50
2022-10-05T18:40:01.644Z,101108.41
2022-10-05T18:43:22.390Z,101127.22
2022-10-05T18:46:26.082Z,101134.53
2022-10-05T18:49:42.493Z,101137.38
2022-10-05T18:52:55.624Z,101168.91
2022-10-05T18:56:20.913Z,101180.78
2022-10-05T18:59:37.410Z,101178.69
2022-10-05T19:02:39.814Z,101184.00
2022-10-05T19:06:04.405Z,101186.84
2022-10-05T19:09:17.556Z,101180.56
2022-10-05T19:12:35.993Z,101182.59
2022-10-05T19:15:46.399Z,101198.66
2022-10-05T19:18:47.204Z,101204.00
2022-10-05T19:22:03.750Z,101191.16
2022-10-05T19:25:20.586Z,101211.19
2022-10-05T19:28:34.913Z,101205.47
2022-10-05T19:31:50.346Z,101207.47
2022-10-05T19:35:46.104Z,101205.84
2022-10-05T19:39:03.553Z,101206.59
2022-10-05T19:42:41.386Z,101212.81
2022-10-05T19:45:43.752Z,101210.34
2022-10-05T19:48:45.935Z,101217.69
2022-10-05T19:51:50.128Z,101222.19
2022-10-05T19:54:49.088Z,101209.53
2022-10-05T19:57:53.891Z,101213.56
2022-10-05T20:00:56.858Z,101224.22
2022-10-05T20:03:54.245Z,101223.34
2022-10-05T20:06:51.346Z,101218.88
2022-10-05T20:10:18.672Z,101222.97
2022-10-05T20:13:22.766Z,101229.28
2022-10-05T20:16:46.859Z,101235.03
2022-10-05T20:19:56.283Z,101229.66
2022-10-05T20:22:53.610Z,101233.38
2022-10-05T20:26:10.243Z,101233.78
2022-10-05T20:29:09.142Z,101221.97
2022-10-05T20:32:12.245Z,101224.84
2022-10-05T20:35:09.494Z,101221.06
2022-10-05T20:38:06.331Z,101216.22
2022-10-05T20:41:03.440Z,101216.59
2022-10-05T20:44:00.465Z,101224.31
2022-10-05T20:46:58.606Z,101229.28
2022-10-05T20:49:56.336Z,101225.19
2022-10-05T20:52:53.546Z,101232.59
2022-10-05T20:55:50.378Z,101221.56
2022-10-05T20:58:47.456Z,101233.38
2022-10-05T21:01:48.103Z,101241.19
2022-10-05T21:04:47.681Z,101238.75
2022-10-05T21:07:45.124Z,101250.63
2022-10-05T21:10:42.322Z,101256.34
2022-10-05T21:13:45.252Z,101259.53
2022-10-05T21:16:43.623Z,101253.00
2022-10-05T21:19:41.282Z,101245.22
2022-10-05T21:22:38.701Z,101257.53
2022-10-05T21:25:36.026Z,101262.00
2022-10-05T21:28:34.100Z,101255.47
2022-10-05T21:31:31.395Z,101270.16
2022-10-05T21:34:28.795Z,101273.41
2022-10-05T21:37:26.202Z,101273.03
2022-10-05T21:40:24.032Z,101270.59
2022-10-05T21:43:21.060Z,101282.41
2022-10-05T21:46:20.707Z,101279.97
2022-10-05T21:49:19.823Z,101293.91
2022-10-05T21:52:17.758Z,101296.69
2022-10-05T21:55:16.063Z,101308.16
2022-10-05T21:58:13.070Z,101323.63
2022-10-05T22:01:11.005Z,101351.81
2022-10-05T22:04:08.211Z,101389.72
2022-10-05T22:07:23.634Z,101393.09
2022-10-05T22:10:20.565Z,101410.19
2022-10-05T22:13:17.762Z,101404.06
2022-10-05T22:16:15.797Z,101409.59
2022-10-05T22:19:14.743Z,101422.16
2022-10-05T22:22:12.673Z,101435.78
2022-10-05T22:25:09.567Z,101434.38
2022-10-05T22:28:06.750Z,101434.38
2022-10-05T22:31:04.983Z,101454.47
2022-10-05T22:34:02.116Z,101468.34
2022-10-05T22:36:59.508Z,101467.34
2022-10-05T22:39:56.695Z,101486.25
2022-10-05T22:42:53.971Z,101474.38
2022-10-05T22:45:51.818Z,101479.31
2022-10-05T22:48:49.725Z,101488.13
2022-10-05T22:51:46.329Z,101488.66
2022-10-05T22:54:43.523Z,101482.75
2022-10-05T22:57:40.745Z,101485.69
2022-10-05T23:00:57.094Z,101488.66
2022-10-05T23:03:57.261Z,101499.75
2022-10-05T23:06:54.287Z,101511.38
2022-10-05T23:09:51.303Z,101517.44
2022-10-05T23:12:59.685Z,101539.88
2022-10-05T23:15:58.369Z,101543.97
2022-10-05T23:18:56.015Z,101555.44
2022-10-05T23:21:53.453Z,101565.22
2022-10-05T23:24:50.740Z,101567.59
2022-10-05T23:27:48.697Z,101564.22
2022-10-05T23:30:45.726Z,101570.97
2022-10-05T23:33:43.436Z,101567.06
2022-10-05T23:36:40.790Z,101587.91
2022-10-05T23:39:38.580Z,101577.13
2022-10-05T23:42:35.534Z,101588.47
2022-10-05T23:45:32.426Z,101580.84
2022-10-05T23:48:30.624Z,101595.63
2022-10-05T23:51:28.205Z,101598.19
2022-10-05T23:54:25.107Z,101599.31
2022-10-05T23:57:22.665Z,101597.44
